sensor_id;sensor_type;location;lat;lon;timestamp;pressure;altitude;pressure_sealevel;temperature;humidity
56789;BME280;42657;51.650;17.780;2022-11-20T00:02:35;99812.02;;;-6.16;73.25
56789;BME280;42657;51.650;17.780;2022-11-20T00:05:37;99810.30;;;-6.19;73.45
56789;BME280;42657;51.650;17.780;2022-11-20T00:08:38;99807.05;;;-6.18;73.47
56789;BME280;42657;51.650;17.780;2022-11-20T00:11:40;99801.94;;;-6.19;73.36
56789;BME280;42657;51.650;17.780;2022-11-20T00:14:44;99797.83;;;-6.20;73.65
56789;BME280;42657;51.650;17.780;2022-11-20T00:17:46;99798.75;;;-6.21;73.66
56789;BME280;42657;51.650;17.780;2022-11-20T00:20:47;99799.08;;;-6.24;73.71
56789;BME280;42657;51.650;17.780;2022-11-20T00:23:50;99796.36;;;-6.28;73.97
56789;BME280;42657;51.650;17.780;2022-11-20T00:26:52;99794.13;;;-6.33;73.87
56789;BME280;42657;51.650;17.780;2022-11-20T00:29:53;99798.10;;;-6.40;73.99
56789;BME280;42657;51.650;17.780;2022-11-20T00:32:56;99804.39;;;-6.44;74.13
56789;BME280;42657;51.650;17.780;2022-11-20T00:36:06;99801.36;;;-6.45;74.09
56789;BME280;42657;51.650;17.780;2022-11-20T00:39:09;99794.77;;;-6.44;74.30
56789;BME280;42657;51.650;17.780;2022-11-20T00:42:10;99792.71;;;-6.42;74.38
56789;BME280;42657;51.650;17.780;2022-11-20T00:45:11;99791.00;;;-6.43;74.49
56789;BME280;42657;51.650;17.780;2022-11-20T00:48:13;99792.48;;;-6.44;74.73
56789;BME280;42657;51.650;17.780;2022-11-20T00:51:18;99796.05;;;-6.46;74.86
56789;BME280;42657;51.650;17.780;2022-11-20T00:54:19;99792.27;;;-6.51;74.81
56789;BME280;42657;51.650;17.780;2022-11-20T00:57:21;99790.24;;;-6.56;74.84
56789;BME280;42657;51.650;17.780;2022-11-20T01:00:22;99792.33;;;-6.57;74.82
56789;BME280;42657;51.650;17.780;2022-11-20T01:03:24;99791.64;;;-6.57;74.86
56789;BME280;42657;51.650;17.780;2022-11-20T01:06:34;99790.89;;;-6.59;74.91
56789;BME280;42657;51.650;17.780;2022-11-20T01:09:36;99790.77;;;-6.62;74.91
56789;BME280;42657;51.650;17.780;2022-11-20T01:12:37;99797.83;;;-6.67;75.02
56789;BME280;42657;51.650;17.780;2022-11-20T01:15:39;99800.33;;;-6.73;75.24
56789;BME280;42657;51.650;17.780;2022-11-20T01:18:43;99800.79;;;-6.79;75.13
56789;BME280;42657;51.650;17.780;2022-11-20T01:21:47;99800.83;;;-6.84;75.40
56789;BME280;42657;51.650;17.780;2022-11-20T01:24:49;99798.22;;;-6.86;75.36
56789;BME280;42657;51.650;17.780;2022-11-20T01:27:50;99796.88;;;-6.85;75.43
56789;BME280;42657;51.650;17.780;2022-11-20T01:30:52;99794.33;;;-6.84;75.49
56789;BME280;42657;51.650;17.780;2022-11-20T01:33:56;99795.50;;;-6.84;75.63
56789;BME280;42657;51.650;17.780;2022-11-20T01:36:58;99797.89;;;-6.85;75.65
56789;BME280;42657;51.650;17.780;2022-11-20T01:39:59;99801.55;;;-6.88;75.73
56789;BME280;42657;51.650;17.780;2022-11-20T01:43:18;99799.73;;;-6.93;75.78
56789;BME280;42657;51.650;17.780;2022-11-20T01:46:20;99806.22;;;-6.96;75.84
56789;BME280;42657;51.650;17.780;2022-11-20T01:49:27;99804.50;;;-7.00;75.83
56789;BME280;42657;51.650;17.780;2022-11-20T01:55:36;99802.77;;;-6.97;76.06
56789;BME280;42657;51.650;17.780;2022-11-20T01:58:46;99798.86;;;-6.94;76.10
56789;BME280;42657;51.650;17.780;2022-11-20T02:01:49;99796.99;;;-6.93;76.12
56789;BME280;42657;51.650;17.780;2022-11-20T02:04:54;99801.31;;;-6.93;76.21
56789;BME280;42657;51.650;17.780;2022-11-20T02:07:59;99800.36;;;-6.95;76.35
56789;BME280;42657;51.650;17.780;2022-11-20T02:11:00;99798.55;;;-6.98;76.36
56789;BME280;42657;51.650;17.780;2022-11-20T02:14:02;99801.34;;;-7.00;76.32
56789;BME280;42657;51.650;17.780;2022-11-20T02:17:03;99797.91;;;-6.99;76.44
56789;BME280;42657;51.650;17.780;2022-11-20T02:20:06;99794.13;;;-6.98;76.35
56789;BME280;42657;51.650;17.780;2022-11-20T02:26:26;99783.21;;;-6.98;76.39
56789;BME280;42657;51.650;17.780;2022-11-20T02:29:42;99788.57;;;-7.02;76.42
56789;BME280;42657;51.650;17.780;2022-11-20T02:32:45;99792.73;;;-7.06;76.49
56789;BME280;42657;51.650;17.780;2022-11-20T02:35:46;99797.84;;;-7.10;76.58
56789;BME280;42657;51.650;17.780;2022-11-20T02:38:49;99797.95;;;-7.13;76.56
56789;BME280;42657;51.650;17.780;2022-11-20T02:41:52;99795.05;;;-7.12;76.76
56789;BME280;42657;51.650;17.780;2022-11-20T02:44:54;99795.69;;;-7.10;76.71
56789;BME280;42657;51.650;17.780;2022-11-20T02:47:56;99800.46;;;-7.05;76.80
56789;BME280;42657;51.650;17.780;2022-11-20T02:50:57;99798.70;;;-6.95;76.94
56789;BME280;42657;51.650;17.780;2022-11-20T02:53:59;99797.64;;;-6.82;76.93
56789;BME280;42657;51.650;17.780;2022-11-20T02:57:00;99795.41;;;-6.72;76.76
56789;BME280;42657;51.650;17.780;2022-11-20T03:00:02;99799.15;;;-6.62;76.84
56789;BME280;42657;51.650;17.780;2022-11-20T03:03:04;99801.21;;;-6.50;76.87
56789;BME280;42657;51.650;17.780;2022-11-20T03:06:06;99803.04;;;-6.37;76.53
56789;BME280;42657;51.650;17.780;2022-11-20T03:09:07;99802.45;;;-6.23;76.52
56789;BME280;42657;51.650;17.780;2022-11-20T03:12:09;99794.39;;;-6.11;76.29
56789;BME280;42657;51.650;17.780;2022-11-20T03:15:10;99794.05;;;-6.02;76.23
56789;BME280;42657;51.650;17.780;2022-11-20T03:18:12;99792.09;;;-5.96;76.12
56789;BME280;42657;51.650;17.780;2022-11-20T03:21:14;99791.67;;;-5.92;76.18
56789;BME280;42657;51.650;17.780;2022-11-20T03:24:16;99793.05;;;-5.90;75.96
56789;BME280;42657;51.650;17.780;2022-11-20T03:27:17;99785.33;;;-5.88;75.91
56789;BME280;42657;51.650;17.780;2022-11-20T03:30:18;99781.15;;;-5.85;75.90
56789;BME280;42657;51.650;17.780;2022-11-20T03:33:20;99778.58;;;-5.80;75.95
56789;BME280;42657;51.650;17.780;2022-11-20T03:36:22;99778.08;;;-5.76;75.79
56789;BME280;42657;51.650;17.780;2022-11-20T03:39:23;99781.05;;;-5.73;75.84
56789;BME280;42657;51.650;17.780;2022-11-20T03:42:25;99781.90;;;-5.73;75.66
56789;BME280;42657;51.650;17.780;2022-11-20T03:45:26;99786.06;;;-5.73;75.81
56789;BME280;42657;51.650;17.780;2022-11-20T03:48:28;99787.66;;;-5.73;75.77
56789;BME280;42657;51.650;17.780;2022-11-20T03:51:31;99789.86;;;-5.69;75.67
56789;BME280;42657;51.650;17.780;2022-11-20T03:54:33;99790.16;;;-5.64;75.67
56789;BME280;42657;51.650;17.780;2022-11-20T03:57:34;99792.77;;;-5.58;75.42
56789;BME280;42657;51.650;17.780;2022-11-20T04:00:36;99796.20;;;-5.55;75.45
56789;BME280;42657;51.650;17.780;2022-11-20T04:03:38;99794.77;;;-5.54;75.46
56789;BME280;42657;51.650;17.780;2022-11-20T04:06:40;99797.16;;;-5.52;75.53
56789;BME280;42657;51.650;17.780;2022-11-20T04:09:41;99801.30;;;-5.52;75.54
56789;BME280;42657;51.650;17.780;2022-11-20T04:12:43;99805.93;;;-5.51;75.34
56789;BME280;42657;51.650;17.780;2022-11-20T04:15:44;99807.60;;;-5.45;75.42
56789;BME280;42657;51.650;17.780;2022-11-20T04:18:46;99805.16;;;-5.35;75.25
56789;BME280;42657;51.650;17.780;2022-11-20T04:21:47;99804.50;;;-5.24;75.01
56789;BME280;42657;51.650;17.780;2022-11-20T04:24:49;99806.64;;;-5.16;74.95
56789;BME280;42657;51.650;17.780;2022-11-20T04:27:50;99805.23;;;-5.10;74.98
56789;BME280;42657;51.650;17.780;2022-11-20T04:30:52;99805.56;;;-5.03;74.83
56789;BME280;42657;51.650;17.780;2022-11-20T04:33:53;99802.07;;;-4.98;74.74
56789;BME280;42657;51.650;17.780;2022-11-20T04:36:55;99799.73;;;-4.96;74.71
56789;BME280;42657;51.650;17.780;2022-11-20T04:39:56;99792.51;;;-4.97;74.47
56789;BME280;42657;51.650;17.780;2022-11-20T04:42:57;99790.69;;;-5.03;74.28
56789;BME280;42657;51.650;17.780;2022-11-20T04:46:00;99788.63;;;-5.10;74.17
56789;BME280;42657;51.650;17.780;2022-11-20T04:49:02;99788.57;;;-5.21;73.92
56789;BME280;42657;51.650;17.780;2022-11-20T04:52:03;99790.26;;;-5.34;74.00
56789;BME280;42657;51.650;17.780;2022-11-20T04:55:05;99790.33;;;-5.47;74.17
56789;BME280;42657;51.650;17.780;2022-11-20T04:58:07;99787.23;;;-5.58;74.29
56789;BME280;42657;51.650;17.780;2022-11-20T05:01:12;99786.02;;;-5.66;74.31
56789;BME280;42657;51.650;17.780;2022-11-20T05:04:14;99786.77;;;-5.73;74.49
56789;BME280;42657;51.650;17.780;2022-11-20T05:07:16;99782.99;;;-5.78;74.49
56789;BME280;42657;51.650;17.780;2022-11-20T05:10:17;99780.98;;;-5.79;74.44
56789;BME280;42657;51.650;17.780;2022-11-20T05:13:19;99776.48;;;-5.79;74.53
56789;BME280;42657;51.650;17.780;2022-11-20T05:16:23;99781.57;;;-5.77;74.59
56789;BME280;42657;51.650;17.780;2022-11-20T05:19:25;99784.38;;;-5.76;74.49
56789;BME280;42657;51.650;17.780;2022-11-20T05:22:26;99778.11;;;-5.76;74.52
56789;BME280;42657;51.650;17.780;2022-11-20T05:25:27;99777.88;;;-5.79;74.70
56789;BME280;42657;51.650;17.780;2022-11-20T05:28:30;99772.83;;;-5.84;74.63
56789;BME280;42657;51.650;17.780;2022-11-20T05:31:32;99776.57;;;-5.88;74.78
56789;BME280;42657;51.650;17.780;2022-11-20T05:34:33;99775.63;;;-5.92;74.90
56789;BME280;42657;51.650;17.780;2022-11-20T05:37:34;99774.13;;;-5.98;74.79
56789;BME280;42657;51.650;17.780;2022-11-20T05:40:36;99773.75;;;-6.02;74.83
56789;BME280;42657;51.650;17.780;2022-11-20T05:43:39;99769.39;;;-6.04;74.95
56789;BME280;42657;51.650;17.780;2022-11-20T05:46:41;99767.48;;;-6.02;74.82
56789;BME280;42657;51.650;17.780;2022-11-20T05:49:42;99768.91;;;-5.98;74.91
56789;BME280;42657;51.650;17.780;2022-11-20T05:52:44;99763.53;;;-5.92;75.04
56789;BME280;42657;51.650;17.780;2022-11-20T05:55:45;99761.23;;;-5.88;74.99
56789;BME280;42657;51.650;17.780;2022-11-20T05:58:48;99757.17;;;-5.85;75.06
56789;BME280;42657;51.650;17.780;2022-11-20T06:01:49;99754.52;;;-5.83;74.81
56789;BME280;42657;51.650;17.780;2022-11-20T06:04:51;99754.16;;;-5.81;75.03
56789;BME280;42657;51.650;17.780;2022-11-20T06:07:52;99751.21;;;-5.81;74.85
56789;BME280;42657;51.650;17.780;2022-11-20T06:10:54;99752.84;;;-5.80;74.79
56789;BME280;42657;51.650;17.780;2022-11-20T06:13:55;99751.63;;;-5.75;74.81
56789;BME280;42657;51.650;17.780;2022-11-20T06:16:57;99754.55;;;-5.68;74.71
56789;BME280;42657;51.650;17.780;2022-11-20T06:19:58;99751.38;;;-5.60;74.84
56789;BME280;42657;51.650;17.780;2022-11-20T06:23:00;99754.20;;;-5.50;74.65
56789;BME280;42657;51.650;17.780;2022-11-20T06:26:06;99756.13;;;-5.45;74.57
56789;BME280;42657;51.650;17.780;2022-11-20T06:29:08;99753.96;;;-5.41;74.55
56789;BME280;42657;51.650;17.780;2022-11-20T06:32:09;99753.39;;;-5.39;74.45
56789;BME280;42657;51.650;17.780;2022-11-20T06:35:11;99758.48;;;-5.39;74.43
56789;BME280;42657;51.650;17.780;2022-11-20T06:38:13;99755.13;;;-5.37;74.30
56789;BME280;42657;51.650;17.780;2022-11-20T06:41:19;99755.00;;;-5.34;74.41
56789;BME280;42657;51.650;17.780;2022-11-20T06:44:21;99752.23;;;-5.28;74.38
56789;BME280;42657;51.650;17.780;2022-11-20T06:47:22;99751.34;;;-5.20;74.25
56789;BME280;42657;51.650;17.780;2022-11-20T06:50:24;99748.68;;;-5.08;74.21
56789;BME280;42657;51.650;17.780;2022-11-20T06:53:26;99744.55;;;-4.97;74.10
56789;BME280;42657;51.650;17.780;2022-11-20T06:56:27;99744.70;;;-4.89;74.08
56789;BME280;42657;51.650;17.780;2022-11-20T06:59:29;99749.46;;;-4.82;73.85
56789;BME280;42657;51.650;17.780;2022-11-20T07:02:30;99750.81;;;-4.73;73.85
56789;BME280;42657;51.650;17.780;2022-11-20T07:05:32;99751.02;;;-4.65;73.57
56789;BME280;42657;51.650;17.780;2022-11-20T07:08:34;99751.89;;;-4.56;73.65
56789;BME280;42657;51.650;17.780;2022-11-20T07:11:36;99756.19;;;-4.45;73.54
56789;BME280;42657;51.650;17.780;2022-11-20T07:14:37;99755.41;;;-4.36;73.26
56789;BME280;42657;51.650;17.780;2022-11-20T07:17:38;99751.00;;;-4.27;72.96
56789;BME280;42657;51.650;17.780;2022-11-20T07:20:40;99752.80;;;-4.20;72.91
56789;BME280;42657;51.650;17.780;2022-11-20T07:23:41;99751.40;;;-4.06;72.65
56789;BME280;42657;51.650;17.780;2022-11-20T07:26:46;99745.08;;;-3.92;72.49
56789;BME280;42657;51.650;17.780;2022-11-20T07:29:47;99746.80;;;-3.82;72.19
56789;BME280;42657;51.650;17.780;2022-11-20T07:32:52;99747.96;;;-3.76;72.06
56789;BME280;42657;51.650;17.780;2022-11-20T07:35:54;99743.48;;;-3.71;71.99
56789;BME280;42657;51.650;17.780;2022-11-20T07:38:55;99743.33;;;-3.67;71.72
56789;BME280;42657;51.650;17.780;2022-11-20T07:41:57;99736.25;;;-3.67;71.68
56789;BME280;42657;51.650;17.780;2022-11-20T07:44:58;99730.85;;;-3.67;71.49
56789;BME280;42657;51.650;17.780;2022-11-20T07:48:00;99729.55;;;-3.66;71.39
56789;BME280;42657;51.650;17.780;2022-11-20T07:51:01;99719.98;;;-3.63;71.16
56789;BME280;42657;51.650;17.780;2022-11-20T07:54:03;99719.27;;;-3.55;71.11
56789;BME280;42657;51.650;17.780;2022-11-20T07:57:04;99713.80;;;-3.45;71.00
56789;BME280;42657;51.650;17.780;2022-11-20T08:00:08;99713.08;;;-3.39;71.09
56789;BME280;42657;51.650;17.780;2022-11-20T08:03:13;99711.60;;;-3.36;70.69
56789;BME280;42657;51.650;17.780;2022-11-20T08:06:21;99708.43;;;-3.38;70.68
56789;BME280;42657;51.650;17.780;2022-11-20T08:09:46;99703.48;;;-3.45;70.54
56789;BME280;42657;51.650;17.780;2022-11-20T08:12:50;99703.24;;;-3.51;70.69
56789;BME280;42657;51.650;17.780;2022-11-20T08:15:52;99703.00;;;-3.58;70.64
56789;BME280;42657;51.650;17.780;2022-11-20T08:18:54;99708.11;;;-3.65;70.49
56789;BME280;42657;51.650;17.780;2022-11-20T08:21:55;99708.71;;;-3.73;70.71
56789;BME280;42657;51.650;17.780;2022-11-20T08:24:57;99706.08;;;-3.76;70.77
56789;BME280;42657;51.650;17.780;2022-11-20T08:27:59;99705.77;;;-3.75;70.68
56789;BME280;42657;51.650;17.780;2022-11-20T08:31:01;99703.45;;;-3.75;70.83
56789;BME280;42657;51.650;17.780;2022-11-20T08:34:03;99703.16;;;-3.74;70.92
56789;BME280;42657;51.650;17.780;2022-11-20T08:37:05;99702.17;;;-3.73;71.02
56789;BME280;42657;51.650;17.780;2022-11-20T08:40:09;99698.29;;;-3.71;71.07
56789;BME280;42657;51.650;17.780;2022-11-20T08:43:11;99694.95;;;-3.69;70.97
56789;BME280;42657;51.650;17.780;2022-11-20T08:46:13;99695.42;;;-3.69;70.96
56789;BME280;42657;51.650;17.780;2022-11-20T08:49:29;99699.34;;;-3.66;70.92
56789;BME280;42657;51.650;17.780;2022-11-20T08:52:44;99696.41;;;-3.59;70.87
56789;BME280;42657;51.650;17.780;2022-11-20T08:55:48;99696.00;;;-3.51;70.86
56789;BME280;42657;51.650;17.780;2022-11-20T08:58:56;99687.83;;;-3.42;70.77
56789;BME280;42657;51.650;17.780;2022-11-20T09:01:59;99682.96;;;-3.34;70.78
56789;BME280;42657;51.650;17.780;2022-11-20T09:05:02;99680.40;;;-3.29;70.81
56789;BME280;42657;51.650;17.780;2022-11-20T09:08:04;99678.02;;;-3.22;70.46
56789;BME280;42657;51.650;17.780;2022-11-20T09:11:06;99680.24;;;-3.17;70.25
56789;BME280;42657;51.650;17.780;2022-11-20T09:14:07;99676.52;;;-3.10;70.03
56789;BME280;42657;51.650;17.780;2022-11-20T09:17:10;99668.25;;;-3.02;69.92
56789;BME280;42657;51.650;17.780;2022-11-20T09:20:13;99669.14;;;-2.92;69.89
56789;BME280;42657;51.650;17.780;2022-11-20T09:23:15;99665.71;;;-2.86;69.71
56789;BME280;42657;51.650;17.780;2022-11-20T09:26:17;99663.98;;;-2.76;69.36
56789;BME280;42657;51.650;17.780;2022-11-20T09:29:18;99666.14;;;-2.68;69.00
56789;BME280;42657;51.650;17.780;2022-11-20T09:32:20;99659.98;;;-2.56;68.93
56789;BME280;42657;51.650;17.780;2022-11-20T09:35:21;99653.77;;;-2.41;68.74
56789;BME280;42657;51.650;17.780;2022-11-20T09:38:23;99654.40;;;-2.26;68.42
56789;BME280;42657;51.650;17.780;2022-11-20T09:45:24;99659.02;;;-2.01;67.98
56789;BME280;42657;51.650;17.780;2022-11-20T09:51:57;99654.05;;;-1.71;66.74
56789;BME280;42657;51.650;17.780;2022-11-20T09:55:02;99652.23;;;-1.60;66.09
56789;BME280;42657;51.650;17.780;2022-11-20T09:58:37;99647.38;;;-1.55;65.99
56789;BME280;42657;51.650;17.780;2022-11-20T10:01:37;99646.80;;;-1.49;65.50
56789;BME280;42657;51.650;17.780;2022-11-20T10:04:44;99643.91;;;-1.42;64.97
56789;BME280;42657;51.650;17.780;2022-11-20T10:07:53;99647.23;;;-1.34;65.16
56789;BME280;42657;51.650;17.780;2022-11-20T10:17:55;99640.23;;;-1.00;64.54
56789;BME280;42657;51.650;17.780;2022-11-20T10:21:22;99643.38;;;-0.80;64.26
56789;BME280;42657;51.650;17.780;2022-11-20T10:24:57;99646.02;;;-0.50;63.55
56789;BME280;42657;51.650;17.780;2022-11-20T10:28:40;99639.98;;;-0.14;63.09
56789;BME280;42657;51.650;17.780;2022-11-20T10:32:01;99633.05;;;0.14;62.55
56789;BME280;42657;51.650;17.780;2022-11-20T10:35:25;99625.45;;;0.40;62.05
56789;BME280;42657;51.650;17.780;2022-11-20T10:41:41;99617.26;;;1.10;60.53
56789;BME280;42657;51.650;17.780;2022-11-20T10:44:50;99614.45;;;1.41;59.65
56789;BME280;42657;51.650;17.780;2022-11-20T10:48:12;99610.80;;;1.76;58.88
56789;BME280;42657;51.650;17.780;2022-11-20T10:54:57;99604.36;;;2.50;57.01
56789;BME280;42657;51.650;17.780;2022-11-20T10:58:19;99603.35;;;2.87;56.16
56789;BME280;42657;51.650;17.780;2022-11-20T11:01:26;99595.45;;;3.20;55.53
56789;BME280;42657;51.650;17.780;2022-11-20T11:07:38;99596.30;;;3.81;54.76
56789;BME280;42657;51.650;17.780;2022-11-20T11:10:57;99592.96;;;4.02;53.31
56789;BME280;42657;51.650;17.780;2022-11-20T11:14:10;99594.83;;;4.26;53.64
56789;BME280;42657;51.650;17.780;2022-11-20T11:17:33;99589.77;;;4.56;53.39
56789;BME280;42657;51.650;17.780;2022-11-20T11:20:34;99584.34;;;4.85;53.08
56789;BME280;42657;51.650;17.780;2022-11-20T11:23:39;99577.23;;;5.09;52.62
56789;BME280;42657;51.650;17.780;2022-11-20T11:26:51;99569.65;;;5.06;51.22
56789;BME280;42657;51.650;17.780;2022-11-20T11:30:12;99567.00;;;4.85;51.04
56789;BME280;42657;51.650;17.780;2022-11-20T11:33:22;99563.23;;;4.49;50.77
56789;BME280;42657;51.650;17.780;2022-11-20T11:36:23;99561.02;;;4.19;51.69
56789;BME280;42657;51.650;17.780;2022-11-20T11:39:26;99552.92;;;3.86;51.72
56789;BME280;42657;51.650;17.780;2022-11-20T11:42:29;99551.96;;;3.40;51.21
56789;BME280;42657;51.650;17.780;2022-11-20T11:45:30;99544.38;;;2.96;51.12
56789;BME280;42657;51.650;17.780;2022-11-20T11:48:32;99539.60;;;2.57;51.54
56789;BME280;42657;51.650;17.780;2022-11-20T11:55:15;99541.89;;;2.52;51.44
56789;BME280;42657;51.650;17.780;2022-11-20T11:58:47;99536.50;;;3.66;50.33
56789;BME280;42657;51.650;17.780;2022-11-20T12:01:54;99522.31;;;4.63;48.98
56789;BME280;42657;51.650;17.780;2022-11-20T12:05:00;99524.43;;;4.36;48.65
56789;BME280;42657;51.650;17.780;2022-11-20T12:11:20;99523.00;;;3.36;49.48
56789;BME280;42657;51.650;17.780;2022-11-20T12:17:31;99529.06;;;2.56;49.63
56789;BME280;42657;51.650;17.780;2022-11-20T12:20:53;99524.98;;;2.22;50.08
56789;BME280;42657;51.650;17.780;2022-11-20T12:31:30;99510.02;;;2.83;49.22
56789;BME280;42657;51.650;17.780;2022-11-20T12:38:51;99504.17;;;2.53;50.23
56789;BME280;42657;51.650;17.780;2022-11-20T12:42:08;99504.58;;;2.28;50.05
56789;BME280;42657;51.650;17.780;2022-11-20T12:48:46;99494.48;;;1.84;50.97
56789;BME280;42657;51.650;17.780;2022-11-20T12:52:12;99488.99;;;1.71;50.90
56789;BME280;42657;51.650;17.780;2022-11-20T12:55:41;99481.25;;;1.59;51.23
56789;BME280;42657;51.650;17.780;2022-11-20T13:01:52;99474.88;;;1.40;51.76
56789;BME280;42657;51.650;17.780;2022-11-20T13:05:02;99468.04;;;1.36;51.84
56789;BME280;42657;51.650;17.780;2022-11-20T13:08:20;99465.98;;;1.26;50.82
56789;BME280;42657;51.650;17.780;2022-11-20T13:11:41;99462.56;;;1.19;50.85
56789;BME280;42657;51.650;17.780;2022-11-20T13:18:07;99462.55;;;1.04;49.85
56789;BME280;42657;51.650;17.780;2022-11-20T13:21:18;99461.33;;;0.98;49.87
56789;BME280;42657;51.650;17.780;2022-11-20T13:24:23;99459.18;;;0.94;49.94
56789;BME280;42657;51.650;17.780;2022-11-20T13:27:25;99458.14;;;0.91;50.29
56789;BME280;42657;51.650;17.780;2022-11-20T13:30:28;99458.44;;;0.89;50.43
56789;BME280;42657;51.650;17.780;2022-11-20T13:33:35;99455.57;;;0.92;50.18
56789;BME280;42657;51.650;17.780;2022-11-20T13:36:49;99458.35;;;0.97;50.30
56789;BME280;42657;51.650;17.780;2022-11-20T13:39:50;99456.42;;;1.05;50.21
56789;BME280;42657;51.650;17.780;2022-11-20T13:43:35;99453.17;;;1.13;50.18
56789;BME280;42657;51.650;17.780;2022-11-20T13:46:41;99454.04;;;1.20;49.54
56789;BME280;42657;51.650;17.780;2022-11-20T13:49:43;99452.30;;;1.22;49.81
56789;BME280;42657;51.650;17.780;2022-11-20T13:53:00;99450.98;;;1.25;49.65
56789;BME280;42657;51.650;17.780;2022-11-20T13:56:39;99447.93;;;1.32;49.86
56789;BME280;42657;51.650;17.780;2022-11-20T14:03:24;99438.23;;;1.40;49.71
56789;BME280;42657;51.650;17.780;2022-11-20T14:06:29;99434.38;;;1.42;49.66
56789;BME280;42657;51.650;17.780;2022-11-20T14:09:33;99432.30;;;1.41;49.68
56789;BME280;42657;51.650;17.780;2022-11-20T14:12:34;99431.30;;;1.38;49.70
56789;BME280;42657;51.650;17.780;2022-11-20T14:15:36;99430.58;;;1.33;49.88
56789;BME280;42657;51.650;17.780;2022-11-20T14:18:37;99431.45;;;1.27;49.91
56789;BME280;42657;51.650;17.780;2022-11-20T14:21:39;99428.63;;;1.20;50.09
56789;BME280;42657;51.650;17.780;2022-11-20T14:24:40;99421.77;;;1.11;50.24
56789;BME280;42657;51.650;17.780;2022-11-20T14:27:53;99423.64;;;1.02;50.38
56789;BME280;42657;51.650;17.780;2022-11-20T14:30:56;99420.08;;;0.89;50.81
56789;BME280;42657;51.650;17.780;2022-11-20T14:33:58;99418.69;;;0.77;51.01
56789;BME280;42657;51.650;17.780;2022-11-20T14:37:05;99419.52;;;0.67;51.32
56789;BME280;42657;51.650;17.780;2022-11-20T14:40:34;99421.95;;;0.56;51.52
56789;BME280;42657;51.650;17.780;2022-11-20T14:43:37;99420.55;;;0.42;51.97
56789;BME280;42657;51.650;17.780;2022-11-20T14:46:39;99419.42;;;0.29;52.16
56789;BME280;42657;51.650;17.780;2022-11-20T14:49:41;99416.51;;;0.17;52.33
56789;BME280;42657;51.650;17.780;2022-11-20T14:52:53;99416.94;;;0.07;52.49
56789;BME280;42657;51.650;17.780;2022-11-20T14:55:57;99413.12;;;-0.06;52.95
56789;BME280;42657;51.650;17.780;2022-11-20T14:58:59;99406.27;;;-0.24;53.26
56789;BME280;42657;51.650;17.780;2022-11-20T15:02:05;99406.04;;;-0.46;53.73
56789;BME280;42657;51.650;17.780;2022-11-20T15:05:09;99401.47;;;-0.69;54.13
56789;BME280;42657;51.650;17.780;2022-11-20T15:08:12;99399.35;;;-0.90;54.38
56789;BME280;42657;51.650;17.780;2022-11-20T15:11:19;99402.11;;;-1.13;54.97
56789;BME280;42657;51.650;17.780;2022-11-20T15:14:22;99401.38;;;-1.34;55.59
56789;BME280;42657;51.650;17.780;2022-11-20T15:17:24;99399.27;;;-1.53;55.85
56789;BME280;42657;51.650;17.780;2022-11-20T15:20:29;99400.48;;;-1.70;56.14
56789;BME280;42657;51.650;17.780;2022-11-20T15:23:31;99400.58;;;-1.87;56.67
56789;BME280;42657;51.650;17.780;2022-11-20T15:26:34;99401.64;;;-2.04;56.90
56789;BME280;42657;51.650;17.780;2022-11-20T15:29:36;99399.20;;;-2.19;57.54
56789;BME280;42657;51.650;17.780;2022-11-20T15:32:37;99399.61;;;-2.34;57.76
56789;BME280;42657;51.650;17.780;2022-11-20T15:35:39;99398.80;;;-2.47;58.24
56789;BME280;42657;51.650;17.780;2022-11-20T15:38:40;99403.02;;;-2.58;58.64
56789;BME280;42657;51.650;17.780;2022-11-20T15:41:42;99401.91;;;-2.69;59.17
56789;BME280;42657;51.650;17.780;2022-11-20T15:44:44;99394.61;;;-2.78;59.34
56789;BME280;42657;51.650;17.780;2022-11-20T15:47:45;99392.35;;;-2.87;59.69
56789;BME280;42657;51.650;17.780;2022-11-20T15:50:52;99391.00;;;-2.93;60.06
56789;BME280;42657;51.650;17.780;2022-11-20T15:53:56;99394.91;;;-2.97;60.26
56789;BME280;42657;51.650;17.780;2022-11-20T15:56:57;99393.63;;;-2.99;60.58
56789;BME280;42657;51.650;17.780;2022-11-20T15:59:59;99388.23;;;-3.01;60.94
56789;BME280;42657;51.650;17.780;2022-11-20T16:03:00;99394.39;;;-3.05;60.97
56789;BME280;42657;51.650;17.780;2022-11-20T16:06:02;99390.36;;;-3.11;61.19
56789;BME280;42657;51.650;17.780;2022-11-20T16:09:04;99391.24;;;-3.14;61.58
56789;BME280;42657;51.650;17.780;2022-11-20T16:12:08;99389.52;;;-3.16;61.76
56789;BME280;42657;51.650;17.780;2022-11-20T16:15:10;99385.67;;;-3.17;61.87
56789;BME280;42657;51.650;17.780;2022-11-20T16:18:19;99384.00;;;-3.21;61.96
56789;BME280;42657;51.650;17.780;2022-11-20T16:21:20;99380.95;;;-3.28;62.35
56789;BME280;42657;51.650;17.780;2022-11-20T16:24:22;99381.70;;;-3.34;62.66
56789;BME280;42657;51.650;17.780;2022-11-20T16:27:23;99370.54;;;-3.43;62.89
56789;BME280;42657;51.650;17.780;2022-11-20T16:30:25;99372.61;;;-3.54;63.24
56789;BME280;42657;51.650;17.780;2022-11-20T16:33:26;99373.42;;;-3.67;63.44
56789;BME280;42657;51.650;17.780;2022-11-20T16:36:28;99367.50;;;-3.79;63.69
56789;BME280;42657;51.650;17.780;2022-11-20T16:39:30;99370.49;;;-3.90;63.99
56789;BME280;42657;51.650;17.780;2022-11-20T16:42:35;99375.27;;;-4.01;64.23
56789;BME280;42657;51.650;17.780;2022-11-20T16:45:43;99373.45;;;-4.13;64.43
56789;BME280;42657;51.650;17.780;2022-11-20T16:48:52;99380.09;;;-4.23;64.76
56789;BME280;42657;51.650;17.780;2022-11-20T16:51:53;99385.27;;;-4.31;65.10
56789;BME280;42657;51.650;17.780;2022-11-20T16:54:55;99387.14;;;-4.38;65.31
56789;BME280;42657;51.650;17.780;2022-11-20T16:57:56;99388.25;;;-4.37;65.49
56789;BME280;42657;51.650;17.780;2022-11-20T17:01:05;99387.19;;;-4.40;65.72
56789;BME280;42657;51.650;17.780;2022-11-20T17:04:07;99383.80;;;-4.43;65.86
56789;BME280;42657;51.650;17.780;2022-11-20T17:07:08;99375.16;;;-4.44;66.14
56789;BME280;42657;51.650;17.780;2022-11-20T17:10:09;99375.33;;;-4.47;66.15
56789;BME280;42657;51.650;17.780;2022-11-20T17:13:11;99371.00;;;-4.52;66.34
56789;BME280;42657;51.650;17.780;2022-11-20T17:16:15;99363.35;;;-4.60;66.47